Time;durP1;ratioP1;P1;durP2;ratioP2;P2;SDS_P1;SDS_P2;PMS_P1;PMS_P2;Temp;Humidity;BMP_temperature;BMP_pressure;BME280_temperature;BME280_humidity;BME280_pressure;Samples;Min_cycle;Max_cycle;Signal;HPM_P1;HPM_P2
2022/03/20 10:43:55;;;;;;;26.95;14.05;;;7.70;45.20;;;;;;5814176;23;20065;-76
2022/03/20 10:46:27;;;;;;;24.98;14.88;;;7.60;44.30;;;;;;4963697;28;20055;-76
2022/03/20 10:49:17;;;;;;;24.85;14.80;;;7.50;44.80;;;;;;4965668;28;20046;-76
2022/03/20 10:52:04;;;;;;;25.17;13.90;;;7.60;46.00;;;;;;4963139;28;20074;-76
2022/03/20 10:54:47;;;;;;;26.00;13.80;;;7.60;43.80;;;;;;4967561;28;20055;-84
2022/03/20 10:57:40;;;;;;;25.40;14.35;;;7.60;45.40;;;;;;4969310;28;20059;-84
2022/03/20 11:03:47;;;;;;;25.60;14.18;;;7.50;45.30;;;;;;4881710;29;20571;-84
2022/03/20 11:06:25;;;;;;;24.67;14.38;;;7.60;46.50;;;;;;4878449;29;20945;-83
2022/03/20 11:08:52;;;;;;;25.85;15.38;;;7.50;46.80;;;;;;4885959;29;20053;-84
2022/03/20 11:11:24;;;;;;;25.77;16.42;;;7.50;47.10;;;;;;4874483;29;20058;-84
2022/03/20 11:13:59;;;;;;;24.67;15.25;;;7.40;46.50;;;;;;4875562;29;20113;-83
2022/03/20 11:17:17;;;;;;;27.00;15.20;;;7.30;45.40;;;;;;4880274;29;20057;-83
2022/03/20 11:19:57;;;;;;;37.92;15.43;;;7.20;46.10;;;;;;4874193;29;20057;-84
2022/03/20 11:22:34;;;;;;;25.67;14.30;;;7.20;46.80;;;;;;4876457;29;20982;-83
2022/03/20 11:25:11;;;;;;;27.48;16.40;;;7.20;47.50;;;;;;4877609;29;20481;-84
2022/03/20 11:27:45;;;;;;;27.00;16.98;;;7.00;49.80;;;;;;4885029;29;20111;-84
2022/03/20 11:30:46;;;;;;;27.75;16.65;;;6.90;51.50;;;;;;4862087;29;20064;-83
2022/03/20 11:33:21;;;;;;;32.92;17.17;;;6.90;53.00;;;;;;4863719;29;20110;-84
2022/03/20 11:39:12;;;;;;;29.75;17.38;;;7.00;51.70;;;;;;4894281;28;20057;-84
2022/03/20 11:42:12;;;;;;;29.20;15.63;;;7.10;51.10;;;;;;4964883;28;20051;-84
2022/03/20 11:45:04;;;;;;;29.55;17.10;;;7.20;51.20;;;;;;4966576;28;20111;-84
2022/03/20 11:47:36;;;;;;;32.35;18.10;;;7.50;51.40;;;;;;4966132;28;20056;-84
2022/03/20 11:50:13;;;;;;;25.77;16.13;;;7.80;52.00;;;;;;4960397;28;20067;-84
2022/03/20 11:52:46;;;;;;;25.92;16.95;;;7.90;49.60;;;;;;4969294;28;20043;-84
2022/03/20 11:55:42;;;;;;;27.75;16.88;;;8.00;50.90;;;;;;4964860;28;20606;-84
2022/03/20 11:58:41;;;;;;;31.80;16.92;;;8.00;49.60;;;;;;4961207;28;20059;-84
2022/03/20 12:01:11;;;;;;;34.17;17.98;;;7.90;48.70;;;;;;4956062;28;20055;-84
2022/03/20 12:03:47;;;;;;;30.77;18.25;;;7.80;50.00;;;;;;4961047;28;20055;-84
2022/03/20 12:07:06;;;;;;;29.48;17.98;;;7.60;50.10;;;;;;4969365;28;20390;-84
2022/03/20 12:10:10;;;;;;;33.22;18.45;;;7.70;50.70;;;;;;4969176;28;20506;-84
2022/03/20 12:13:17;;;;;;;28.77;17.30;;;7.80;51.50;;;;;;4923907;28;20056;-84
2022/03/20 12:16:09;;;;;;;30.30;18.02;;;7.70;50.70;;;;;;4888441;29;20060;-85
2022/03/20 12:19:19;;;;;;;30.13;18.15;;;7.70;49.50;;;;;;4912872;29;20971;-84
2022/03/20 12:21:58;;;;;;;29.17;18.83;;;7.80;50.80;;;;;;4911872;29;20052;-84
2022/03/20 12:25:25;;;;;;;30.70;18.58;;;7.70;50.40;;;;;;4915698;29;20059;-84
2022/03/20 12:27:52;;;;;;;35.53;18.70;;;7.60;50.50;;;;;;4820012;29;20059;-83
2022/03/20 12:30:45;;;;;;;33.47;19.33;;;7.60;52.40;;;;;;4841827;29;20846;-84
2022/03/20 12:33:38;;;;;;;28.88;18.52;;;7.70;52.10;;;;;;4864717;29;20084;-84
2022/03/20 12:36:28;;;;;;;32.10;19.02;;;7.70;51.80;;;;;;4922096;28;20229;-83
2022/03/20 12:39:58;;;;;;;;;;;;;;;;;;;;;
2022/03/20 12:43:02;;;;;;;30.48;18.80;;;7.80;51.20;;;;;;4907126;29;20064;-84
2022/03/20 12:49:02;;;;;;;29.23;18.55;;;8.00;52.40;;;;;;4928048;28;20498;-84
2022/03/20 12:51:34;;;;;;;32.97;19.90;;;8.00;52.90;;;;;;4958097;28;20664;-84
2022/03/20 12:54:15;;;;;;;30.33;19.05;;;7.80;53.40;;;;;;4962617;28;20134;-84
2022/03/20 13:00:32;;;;;;;31.30;19.27;;;8.00;54.40;;;;;;4924925;28;20092;-84
2022/03/20 13:03:10;;;;;;;35.83;18.95;;;8.10;55.40;;;;;;4909224;28;20057;-85
2022/03/20 13:06:00;;;;;;;30.60;18.88;;;8.10;53.50;;;;;;4905573;28;20044;-84
2022/03/20 13:09:00;;;;;;;31.75;18.70;;;7.80;52.00;;;;;;4913517;28;20151;-84
2022/03/20 13:14:27;;;;;;;31.45;18.65;;;7.90;53.20;;;;;;4915291;28;20064;-84
2022/03/20 13:16:58;;;;;;;30.80;18.50;;;7.90;54.20;;;;;;4910727;29;20057;-83
2022/03/20 13:19:39;;;;;;;32.10;19.15;;;7.90;53.60;;;;;;4909144;28;20049;-84
2022/03/20 13:22:09;;;;;;;30.92;20.88;;;7.90;54.00;;;;;;4910757;28;20052;-84
2022/03/20 13:24:49;;;;;;;33.45;19.40;;;7.90;53.80;;;;;;4908226;28;20183;-84
2022/03/20 13:27:15;;;;;;;30.90;19.05;;;7.90;53.80;;;;;;4910605;29;20074;-83
2022/03/20 13:33:14;;;;;;;34.20;20.00;;;7.80;53.00;;;;;;4889172;29;20053;-84
2022/03/20 13:35:42;;;;;;;29.60;19.67;;;7.50;54.20;;;;;;4897409;29;20132;-83
2022/03/20 13:38:11;;;;;;;35.13;18.80;;;7.60;54.10;;;;;;4887507;29;20112;-83
2022/03/20 13:40:39;;;;;;;36.03;20.98;;;7.60;53.90;;;;;;4895991;29;20207;-84
2022/03/20 13:43:19;;;;;;;30.30;19.08;;;7.60;53.60;;;;;;4913275;29;20056;-84
2022/03/20 13:53:43;;;;;;;36.83;19.40;;;7.70;53.00;;;;;;4852793;29;20062;-85
2022/03/20 14:07:30;;;;;;;31.85;17.60;;;7.70;53.70;;;;;;4778595;29;20510;-84
2022/03/20 14:10:16;;;;;;;30.50;17.63;;;7.70;54.00;;;;;;4771317;29;20612;-83
2022/03/20 14:13:44;;;;;;;34.50;18.20;;;7.70;54.70;;;;;;4784621;29;20043;-82
2022/03/20 14:16:39;;;;;;;30.58;19.05;;;7.70;54.00;;;;;;4773743;29;20048;-84
2022/03/20 14:23:44;;;;;;;29.17;17.33;;;7.60;53.60;;;;;;4757043;29;20099;-79
2022/03/20 14:26:02;;;;;;;29.60;17.80;;;7.60;53.70;;;;;;4777425;29;20853;-77
2022/03/20 14:28:36;;;;;;;;;;;7.70;54.00;;;;;;4812038;29;20070;-77
2022/03/20 14:40:21;;;;;;;22.77;14.55;;;8.30;53.80;;;;;;4852384;29;20826;-79
2022/03/20 14:43:57;;;;;;;24.45;13.57;;;8.40;53.10;;;;;;4899074;29;20143;-82
2022/03/20 14:47:04;;;;;;;32.90;13.35;;;8.60;52.20;;;;;;4853945;29;20526;-84
2022/03/20 14:49:38;;;;;;;20.55;13.45;;;8.90;52.20;;;;;;4909593;28;20082;-81
2022/03/20 14:52:21;;;;;;;21.23;13.85;;;9.20;51.90;;;;;;4973403;28;20920;-80
2022/03/20 14:54:48;;;;;;;24.10;14.98;;;9.20;52.00;;;;;;4975412;28;20079;-80
2022/03/20 14:57:40;;;;;;;27.05;15.88;;;9.20;51.90;;;;;;4966887;28;20049;-80
2022/03/20 15:00:54;;;;;;;26.08;15.43;;;8.90;51.10;;;;;;4957735;28;20055;-77
2022/03/20 15:03:28;;;;;;;25.67;16.10;;;8.80;51.80;;;;;;4971090;28;20055;-81
2022/03/20 15:18:12;;;;;;;26.02;17.40;;;9.30;52.00;;;;;;4862829;29;20046;-89
2022/03/20 15:25:12;;;;;;;30.20;18.90;;;9.30;51.70;;;;;;4759832;29;20450;-78
2022/03/20 15:28:25;;;;;;;30.38;18.77;;;9.50;51.70;;;;;;4766411;29;20389;-77
2022/03/20 15:31:08;;;;;;;28.83;18.85;;;9.60;52.00;;;;;;4751221;29;20064;-78
2022/03/20 15:33:40;;;;;;;30.57;19.33;;;9.70;52.10;;;;;;4729597;30;20057;-77
2022/03/20 15:36:30;;;;;;;31.98;20.55;;;9.70;50.90;;;;;;4745791;29;20056;-78
2022/03/20 15:39:30;;;;;;;34.05;21.45;;;9.70;49.60;;;;;;4750577;29;20501;-78
2022/03/20 16:08:54;;;;;;;30.02;19.02;;;10.00;49.00;;;;;;6104266;22;2171047;-75
2022/03/20 16:12:16;;;;;;;29.98;19.48;;;9.70;48.90;;;;;;6136825;23;20026;-75
2022/03/20 16:14:43;;;;;;;32.42;20.17;;;9.60;48.10;;;;;;6112496;23;20096;-76
2022/03/20 16:17:42;;;;;;;29.85;19.83;;;9.70;49.50;;;;;;6113559;23;20022;-76
2022/03/20 16:20:58;;;;;;;30.15;19.15;;;9.70;49.40;;;;;;6108316;23;20054;-76
2022/03/20 16:34:57;;;;;;;28.60;18.70;;;9.00;49.70;;;;;;6163560;23;20006;-87
2022/03/20 16:41:55;;;;;;;30.73;19.05;;;8.70;49.60;;;;;;6019343;23;20075;-87
2022/03/20 16:52:26;;;;;;;31.13;19.38;;;8.30;51.30;;;;;;5837654;24;19920;-84
2022/03/20 16:58:34;;;;;;;;;;;;;;;;;;;;;
2022/03/20 17:05:47;;;;;;;30.75;18.38;;;8.00;53.50;;;;;;5814268;24;20019;-86
